sensor_id;sensor_type;location;lat;lon;timestamp;P1;durP1;ratioP1;P2;durP2;ratioP2
49710;SDS011;35602;44.534;18.696;2022-11-14T00:02:12;104.30;;;79.93;;
49710;SDS011;35602;44.534;18.696;2022-11-14T00:07:16;107.30;;;79.87;;
49710;SDS011;35602;44.534;18.696;2022-11-14T00:12:16;106.63;;;79.75;;
49710;SDS011;35602;44.534;18.696;2022-11-14T00:17:17;103.45;;;80.07;;
49710;SDS011;35602;44.534;18.696;2022-11-14T00:22:18;103.28;;;79.07;;
49710;SDS011;35602;44.534;18.696;2022-11-14T00:27:19;104.30;;;78.62;;
49710;SDS011;35602;44.534;18.696;2022-11-14T00:32:20;104.45;;;79.22;;
49710;SDS011;35602;44.534;18.696;2022-11-14T00:37:21;104.40;;;78.47;;
49710;SDS011;35602;44.534;18.696;2022-11-14T00:42:22;104.12;;;77.47;;
49710;SDS011;35602;44.534;18.696;2022-11-14T00:47:23;104.70;;;76.75;;
49710;SDS011;35602;44.534;18.696;2022-11-14T00:52:23;109.28;;;83.62;;
49710;SDS011;35602;44.534;18.696;2022-11-14T00:57:24;102.70;;;78.30;;
49710;SDS011;35602;44.534;18.696;2022-11-14T01:02:25;102.10;;;78.15;;
49710;SDS011;35602;44.534;18.696;2022-11-14T01:07:26;101.85;;;77.95;;
49710;SDS011;35602;44.534;18.696;2022-11-14T01:12:27;106.85;;;78.50;;
49710;SDS011;35602;44.534;18.696;2022-11-14T01:17:28;107.40;;;81.10;;
49710;SDS011;35602;44.534;18.696;2022-11-14T01:22:29;103.93;;;77.75;;
49710;SDS011;35602;44.534;18.696;2022-11-14T01:27:30;109.25;;;80.70;;
49710;SDS011;35602;44.534;18.696;2022-11-14T01:32:31;108.47;;;81.18;;
49710;SDS011;35602;44.534;18.696;2022-11-14T01:37:32;106.22;;;79.43;;
49710;SDS011;35602;44.534;18.696;2022-11-14T01:42:33;102.93;;;78.60;;
49710;SDS011;35602;44.534;18.696;2022-11-14T01:47:33;102.18;;;77.65;;
49710;SDS011;35602;44.534;18.696;2022-11-14T01:52:36;106.05;;;79.97;;
49710;SDS011;35602;44.534;18.696;2022-11-14T01:57:41;106.20;;;79.55;;
49710;SDS011;35602;44.534;18.696;2022-11-14T02:02:45;103.57;;;78.83;;
49710;SDS011;35602;44.534;18.696;2022-11-14T02:07:47;105.68;;;80.87;;
49710;SDS011;35602;44.534;18.696;2022-11-14T02:12:48;108.00;;;81.00;;
49710;SDS011;35602;44.534;18.696;2022-11-14T02:17:50;107.22;;;80.03;;
49710;SDS011;35602;44.534;18.696;2022-11-14T02:22:51;104.12;;;79.55;;
49710;SDS011;35602;44.534;18.696;2022-11-14T02:27:52;105.72;;;78.40;;
49710;SDS011;35602;44.534;18.696;2022-11-14T02:32:53;103.20;;;77.97;;
49710;SDS011;35602;44.534;18.696;2022-11-14T02:37:54;102.78;;;77.35;;
49710;SDS011;35602;44.534;18.696;2022-11-14T02:42:54;102.57;;;76.43;;
49710;SDS011;35602;44.534;18.696;2022-11-14T02:47:55;106.25;;;79.43;;
49710;SDS011;35602;44.534;18.696;2022-11-14T02:52:56;102.28;;;77.18;;
49710;SDS011;35602;44.534;18.696;2022-11-14T02:57:57;104.65;;;77.12;;
49710;SDS011;35602;44.534;18.696;2022-11-14T03:02:57;98.97;;;76.53;;
49710;SDS011;35602;44.534;18.696;2022-11-14T03:07:58;100.45;;;76.25;;
49710;SDS011;35602;44.534;18.696;2022-11-14T03:12:59;104.22;;;80.30;;
49710;SDS011;35602;44.534;18.696;2022-11-14T03:18:00;99.65;;;75.55;;
49710;SDS011;35602;44.534;18.696;2022-11-14T03:23:01;102.82;;;77.82;;
49710;SDS011;35602;44.534;18.696;2022-11-14T03:28:02;104.20;;;77.45;;
49710;SDS011;35602;44.534;18.696;2022-11-14T03:33:03;100.15;;;76.37;;
49710;SDS011;35602;44.534;18.696;2022-11-14T03:38:03;103.95;;;78.15;;
49710;SDS011;35602;44.534;18.696;2022-11-14T03:43:04;99.78;;;76.32;;
49710;SDS011;35602;44.534;18.696;2022-11-14T03:48:05;101.10;;;77.57;;
49710;SDS011;35602;44.534;18.696;2022-11-14T03:53:06;100.62;;;75.60;;
49710;SDS011;35602;44.534;18.696;2022-11-14T03:58:07;96.53;;;76.10;;
49710;SDS011;35602;44.534;18.696;2022-11-14T04:03:08;100.55;;;77.05;;
49710;SDS011;35602;44.534;18.696;2022-11-14T04:08:09;98.28;;;74.22;;
49710;SDS011;35602;44.534;18.696;2022-11-14T04:13:10;97.97;;;74.50;;
49710;SDS011;35602;44.534;18.696;2022-11-14T04:18:11;99.20;;;74.60;;
49710;SDS011;35602;44.534;18.696;2022-11-14T04:23:11;99.05;;;74.00;;
49710;SDS011;35602;44.534;18.696;2022-11-14T04:28:12;93.72;;;73.10;;
49710;SDS011;35602;44.534;18.696;2022-11-14T04:33:13;97.65;;;74.85;;
49710;SDS011;35602;44.534;18.696;2022-11-14T04:38:14;96.53;;;73.72;;
49710;SDS011;35602;44.534;18.696;2022-11-14T04:43:15;94.85;;;72.95;;
49710;SDS011;35602;44.534;18.696;2022-11-14T04:48:16;97.97;;;74.65;;
49710;SDS011;35602;44.534;18.696;2022-11-14T04:53:17;93.43;;;72.55;;
49710;SDS011;35602;44.534;18.696;2022-11-14T04:58:17;97.20;;;74.12;;
49710;SDS011;35602;44.534;18.696;2022-11-14T05:03:18;94.20;;;72.93;;
49710;SDS011;35602;44.534;18.696;2022-11-14T05:08:19;95.28;;;73.00;;
49710;SDS011;35602;44.534;18.696;2022-11-14T05:13:20;94.05;;;71.53;;
49710;SDS011;35602;44.534;18.696;2022-11-14T05:18:21;96.03;;;71.70;;
49710;SDS011;35602;44.534;18.696;2022-11-14T05:23:22;94.37;;;71.72;;
49710;SDS011;35602;44.534;18.696;2022-11-14T05:28:23;90.80;;;70.40;;
49710;SDS011;35602;44.534;18.696;2022-11-14T05:33:24;88.65;;;68.65;;
49710;SDS011;35602;44.534;18.696;2022-11-14T05:38:24;95.97;;;71.65;;
49710;SDS011;35602;44.534;18.696;2022-11-14T05:43:27;91.97;;;69.57;;
49710;SDS011;35602;44.534;18.696;2022-11-14T05:48:29;92.03;;;69.60;;
49710;SDS011;35602;44.534;18.696;2022-11-14T05:53:30;94.18;;;70.78;;
49710;SDS011;35602;44.534;18.696;2022-11-14T05:58:32;96.25;;;72.82;;
49710;SDS011;35602;44.534;18.696;2022-11-14T06:03:35;87.35;;;66.97;;
49710;SDS011;35602;44.534;18.696;2022-11-14T06:08:37;95.55;;;71.28;;
49710;SDS011;35602;44.534;18.696;2022-11-14T06:13:39;86.55;;;68.72;;
49710;SDS011;35602;44.534;18.696;2022-11-14T06:18:40;90.68;;;69.70;;
49710;SDS011;35602;44.534;18.696;2022-11-14T06:23:41;92.18;;;70.50;;
49710;SDS011;35602;44.534;18.696;2022-11-14T06:28:43;87.90;;;67.82;;
49710;SDS011;35602;44.534;18.696;2022-11-14T06:33:43;92.30;;;70.43;;
49710;SDS011;35602;44.534;18.696;2022-11-14T06:38:44;98.28;;;72.07;;
49710;SDS011;35602;44.534;18.696;2022-11-14T06:43:46;96.45;;;71.00;;
49710;SDS011;35602;44.534;18.696;2022-11-14T06:48:49;97.15;;;72.25;;
49710;SDS011;35602;44.534;18.696;2022-11-14T06:53:51;94.62;;;71.87;;
49710;SDS011;35602;44.534;18.696;2022-11-14T06:58:52;97.72;;;73.50;;
49710;SDS011;35602;44.534;18.696;2022-11-14T07:03:53;95.97;;;73.28;;
49710;SDS011;35602;44.534;18.696;2022-11-14T07:08:55;96.30;;;72.00;;
49710;SDS011;35602;44.534;18.696;2022-11-14T07:14:00;97.18;;;74.12;;
49710;SDS011;35602;44.534;18.696;2022-11-14T07:19:03;94.50;;;73.22;;
49710;SDS011;35602;44.534;18.696;2022-11-14T07:24:05;99.78;;;75.72;;
49710;SDS011;35602;44.534;18.696;2022-11-14T07:29:06;99.35;;;76.12;;
49710;SDS011;35602;44.534;18.696;2022-11-14T07:34:07;98.62;;;75.78;;
49710;SDS011;35602;44.534;18.696;2022-11-14T07:39:08;100.35;;;76.12;;
49710;SDS011;35602;44.534;18.696;2022-11-14T07:44:09;104.68;;;78.12;;
49710;SDS011;35602;44.534;18.696;2022-11-14T07:49:10;104.35;;;79.20;;
49710;SDS011;35602;44.534;18.696;2022-11-14T07:54:10;105.70;;;79.55;;
49710;SDS011;35602;44.534;18.696;2022-11-14T07:59:12;113.50;;;84.05;;
49710;SDS011;35602;44.534;18.696;2022-11-14T08:04:13;120.40;;;87.53;;
49710;SDS011;35602;44.534;18.696;2022-11-14T08:09:13;117.62;;;87.32;;
49710;SDS011;35602;44.534;18.696;2022-11-14T08:14:15;125.03;;;91.22;;
49710;SDS011;35602;44.534;18.696;2022-11-14T08:19:15;129.15;;;92.72;;
49710;SDS011;35602;44.534;18.696;2022-11-14T08:24:16;132.02;;;92.22;;
49710;SDS011;35602;44.534;18.696;2022-11-14T08:29:17;132.48;;;92.03;;
49710;SDS011;35602;44.534;18.696;2022-11-14T08:34:18;145.45;;;98.07;;
49710;SDS011;35602;44.534;18.696;2022-11-14T08:39:19;140.25;;;100.05;;
49710;SDS011;35602;44.534;18.696;2022-11-14T08:44:20;144.45;;;101.32;;
49710;SDS011;35602;44.534;18.696;2022-11-14T08:49:21;146.73;;;103.30;;
49710;SDS011;35602;44.534;18.696;2022-11-14T08:54:22;152.73;;;106.35;;
49710;SDS011;35602;44.534;18.696;2022-11-14T08:59:23;159.02;;;108.65;;
49710;SDS011;35602;44.534;18.696;2022-11-14T09:04:24;158.77;;;110.95;;
49710;SDS011;35602;44.534;18.696;2022-11-14T09:09:25;169.40;;;118.55;;
49710;SDS011;35602;44.534;18.696;2022-11-14T09:14:25;165.80;;;115.20;;
49710;SDS011;35602;44.534;18.696;2022-11-14T09:19:27;173.20;;;121.03;;
49710;SDS011;35602;44.534;18.696;2022-11-14T09:24:27;175.55;;;122.43;;
49710;SDS011;35602;44.534;18.696;2022-11-14T09:29:28;189.85;;;127.82;;
49710;SDS011;35602;44.534;18.696;2022-11-14T09:34:29;192.68;;;128.30;;
49710;SDS011;35602;44.534;18.696;2022-11-14T09:39:30;187.95;;;129.12;;
49710;SDS011;35602;44.534;18.696;2022-11-14T09:45:16;197.07;;;135.55;;
49710;SDS011;35602;44.534;18.696;2022-11-14T09:50:21;196.57;;;134.68;;
49710;SDS011;35602;44.534;18.696;2022-11-14T09:55:30;205.87;;;141.68;;
49710;SDS011;35602;44.534;18.696;2022-11-14T10:01:08;206.32;;;140.73;;
49710;SDS011;35602;44.534;18.696;2022-11-14T10:06:22;206.43;;;143.20;;
49710;SDS011;35602;44.534;18.696;2022-11-14T10:20:19;218.40;;;152.45;;
49710;SDS011;35602;44.534;18.696;2022-11-14T10:25:44;232.37;;;157.77;;
49710;SDS011;35602;44.534;18.696;2022-11-14T10:32:20;245.37;;;165.02;;
49710;SDS011;35602;44.534;18.696;2022-11-14T10:39:06;243.48;;;165.95;;
49710;SDS011;35602;44.534;18.696;2022-11-14T10:45:02;257.67;;;172.27;;
49710;SDS011;35602;44.534;18.696;2022-11-14T10:50:34;250.65;;;167.48;;
49710;SDS011;35602;44.534;18.696;2022-11-14T10:55:45;246.75;;;167.70;;
49710;SDS011;35602;44.534;18.696;2022-11-14T11:00:50;249.65;;;169.45;;
49710;SDS011;35602;44.534;18.696;2022-11-14T11:05:52;265.00;;;179.15;;
49710;SDS011;35602;44.534;18.696;2022-11-14T11:10:57;266.50;;;179.73;;
49710;SDS011;35602;44.534;18.696;2022-11-14T11:16:18;258.40;;;175.15;;
49710;SDS011;35602;44.534;18.696;2022-11-14T11:21:21;263.55;;;177.48;;
49710;SDS011;35602;44.534;18.696;2022-11-14T11:26:26;255.45;;;180.32;;
49710;SDS011;35602;44.534;18.696;2022-11-14T11:31:47;261.17;;;173.53;;
49710;SDS011;35602;44.534;18.696;2022-11-14T11:37:36;255.55;;;170.68;;
49710;SDS011;35602;44.534;18.696;2022-11-14T11:42:48;257.95;;;173.45;;
49710;SDS011;35602;44.534;18.696;2022-11-14T11:48:09;251.65;;;170.50;;
49710;SDS011;35602;44.534;18.696;2022-11-14T11:53:21;253.23;;;168.73;;
49710;SDS011;35602;44.534;18.696;2022-11-14T11:59:34;246.40;;;168.48;;
49710;SDS011;35602;44.534;18.696;2022-11-14T12:14:41;241.27;;;158.48;;
49710;SDS011;35602;44.534;18.696;2022-11-14T12:20:18;241.80;;;164.52;;
49710;SDS011;35602;44.534;18.696;2022-11-14T12:25:44;240.48;;;164.48;;
49710;SDS011;35602;44.534;18.696;2022-11-14T12:31:05;249.93;;;165.65;;
49710;SDS011;35602;44.534;18.696;2022-11-14T12:36:12;244.35;;;167.62;;
49710;SDS011;35602;44.534;18.696;2022-11-14T12:41:19;243.50;;;164.62;;
49710;SDS011;35602;44.534;18.696;2022-11-14T12:46:24;243.52;;;167.82;;
49710;SDS011;35602;44.534;18.696;2022-11-14T12:57:40;252.60;;;164.48;;
49710;SDS011;35602;44.534;18.696;2022-11-14T13:10:09;244.68;;;164.23;;
49710;SDS011;35602;44.534;18.696;2022-11-14T13:15:46;244.05;;;163.27;;
49710;SDS011;35602;44.534;18.696;2022-11-14T13:21:28;247.88;;;167.23;;
49710;SDS011;35602;44.534;18.696;2022-11-14T13:26:49;232.70;;;158.37;;
49710;SDS011;35602;44.534;18.696;2022-11-14T13:31:53;237.52;;;160.98;;
49710;SDS011;35602;44.534;18.696;2022-11-14T13:37:07;237.23;;;157.80;;
49710;SDS011;35602;44.534;18.696;2022-11-14T13:54:55;302.70;;;179.98;;
49710;SDS011;35602;44.534;18.696;2022-11-14T14:00:01;283.98;;;178.87;;
49710;SDS011;35602;44.534;18.696;2022-11-14T14:12:21;266.27;;;166.85;;
49710;SDS011;35602;44.534;18.696;2022-11-14T14:17:57;278.30;;;176.52;;
49710;SDS011;35602;44.534;18.696;2022-11-14T14:29:05;273.25;;;168.73;;
49710;SDS011;35602;44.534;18.696;2022-11-14T14:35:29;261.27;;;162.20;;
49710;SDS011;35602;44.534;18.696;2022-11-14T14:40:32;257.85;;;163.35;;
49710;SDS011;35602;44.534;18.696;2022-11-14T14:45:43;258.52;;;160.48;;
49710;SDS011;35602;44.534;18.696;2022-11-14T14:50:48;253.85;;;159.07;;
49710;SDS011;35602;44.534;18.696;2022-11-14T14:55:57;251.98;;;163.65;;
49710;SDS011;35602;44.534;18.696;2022-11-14T15:02:07;261.23;;;160.65;;
49710;SDS011;35602;44.534;18.696;2022-11-14T15:07:17;260.55;;;159.40;;
49710;SDS011;35602;44.534;18.696;2022-11-14T15:12:25;253.45;;;158.25;;
49710;SDS011;35602;44.534;18.696;2022-11-14T15:17:28;251.73;;;155.95;;
49710;SDS011;35602;44.534;18.696;2022-11-14T15:22:29;251.23;;;156.73;;
49710;SDS011;35602;44.534;18.696;2022-11-14T15:27:30;252.07;;;157.68;;
49710;SDS011;35602;44.534;18.696;2022-11-14T15:32:32;249.90;;;157.57;;
49710;SDS011;35602;44.534;18.696;2022-11-14T15:37:33;242.07;;;155.37;;
49710;SDS011;35602;44.534;18.696;2022-11-14T15:42:34;244.35;;;151.80;;
49710;SDS011;35602;44.534;18.696;2022-11-14T15:47:38;244.07;;;153.95;;
49710;SDS011;35602;44.534;18.696;2022-11-14T15:52:46;238.23;;;150.35;;
49710;SDS011;35602;44.534;18.696;2022-11-14T16:02:57;239.02;;;151.48;;
49710;SDS011;35602;44.534;18.696;2022-11-14T16:07:58;231.45;;;149.07;;
49710;SDS011;35602;44.534;18.696;2022-11-14T16:12:59;231.60;;;146.30;;
49710;SDS011;35602;44.534;18.696;2022-11-14T16:18:00;227.85;;;148.73;;
49710;SDS011;35602;44.534;18.696;2022-11-14T16:23:00;234.95;;;149.70;;
49710;SDS011;35602;44.534;18.696;2022-11-14T16:28:02;231.05;;;147.52;;
49710;SDS011;35602;44.534;18.696;2022-11-14T16:33:02;232.23;;;149.30;;
49710;SDS011;35602;44.534;18.696;2022-11-14T16:38:03;231.02;;;150.20;;
49710;SDS011;35602;44.534;18.696;2022-11-14T16:43:04;229.55;;;148.38;;
49710;SDS011;35602;44.534;18.696;2022-11-14T16:48:05;230.25;;;148.98;;
49710;SDS011;35602;44.534;18.696;2022-11-14T16:53:06;228.93;;;146.68;;
49710;SDS011;35602;44.534;18.696;2022-11-14T16:58:07;225.50;;;147.60;;
49710;SDS011;35602;44.534;18.696;2022-11-14T17:03:07;220.77;;;144.70;;
49710;SDS011;35602;44.534;18.696;2022-11-14T17:08:08;228.00;;;146.87;;
49710;SDS011;35602;44.534;18.696;2022-11-14T17:13:09;231.02;;;147.20;;
49710;SDS011;35602;44.534;18.696;2022-11-14T17:18:11;224.07;;;144.87;;
49710;SDS011;35602;44.534;18.696;2022-11-14T17:23:12;222.73;;;145.55;;
49710;SDS011;35602;44.534;18.696;2022-11-14T17:28:13;218.82;;;141.18;;
49710;SDS011;35602;44.534;18.696;2022-11-14T17:33:14;225.23;;;146.85;;
49710;SDS011;35602;44.534;18.696;2022-11-14T17:38:14;226.20;;;146.52;;
49710;SDS011;35602;44.534;18.696;2022-11-14T17:43:15;226.73;;;147.10;;
49710;SDS011;35602;44.534;18.696;2022-11-14T17:48:16;224.77;;;144.75;;
49710;SDS011;35602;44.534;18.696;2022-11-14T17:53:17;216.23;;;142.02;;
49710;SDS011;35602;44.534;18.696;2022-11-14T17:58:18;223.87;;;144.90;;
49710;SDS011;35602;44.534;18.696;2022-11-14T18:03:19;227.10;;;147.00;;
49710;SDS011;35602;44.534;18.696;2022-11-14T18:08:20;231.60;;;148.15;;
49710;SDS011;35602;44.534;18.696;2022-11-14T18:13:21;229.85;;;148.02;;
49710;SDS011;35602;44.534;18.696;2022-11-14T18:18:22;220.15;;;143.62;;
49710;SDS011;35602;44.534;18.696;2022-11-14T18:23:23;223.52;;;146.23;;
49710;SDS011;35602;44.534;18.696;2022-11-14T18:28:24;218.05;;;144.02;;
49710;SDS011;35602;44.534;18.696;2022-11-14T18:33:25;216.45;;;144.87;;
49710;SDS011;35602;44.534;18.696;2022-11-14T18:38:28;230.07;;;147.80;;
49710;SDS011;35602;44.534;18.696;2022-11-14T18:43:31;220.45;;;146.50;;
49710;SDS011;35602;44.534;18.696;2022-11-14T18:48:33;211.18;;;142.52;;
49710;SDS011;35602;44.534;18.696;2022-11-14T18:53:35;220.07;;;142.18;;
49710;SDS011;35602;44.534;18.696;2022-11-14T18:58:36;203.85;;;137.68;;
49710;SDS011;35602;44.534;18.696;2022-11-14T19:03:38;211.52;;;139.85;;
49710;SDS011;35602;44.534;18.696;2022-11-14T19:08:39;209.95;;;141.12;;
49710;SDS011;35602;44.534;18.696;2022-11-14T19:13:41;208.02;;;138.70;;
49710;SDS011;35602;44.534;18.696;2022-11-14T19:18:41;211.00;;;140.50;;
49710;SDS011;35602;44.534;18.696;2022-11-14T19:23:42;210.30;;;139.30;;
49710;SDS011;35602;44.534;18.696;2022-11-14T19:28:43;207.40;;;138.93;;
49710;SDS011;35602;44.534;18.696;2022-11-14T19:33:44;205.62;;;138.90;;
49710;SDS011;35602;44.534;18.696;2022-11-14T19:38:45;196.02;;;135.30;;
49710;SDS011;35602;44.534;18.696;2022-11-14T19:43:46;204.38;;;141.55;;
49710;SDS011;35602;44.534;18.696;2022-11-14T19:48:48;201.40;;;138.68;;
49710;SDS011;35602;44.534;18.696;2022-11-14T19:53:49;195.60;;;137.30;;
49710;SDS011;35602;44.534;18.696;2022-11-14T19:58:52;203.07;;;138.12;;
49710;SDS011;35602;44.534;18.696;2022-11-14T20:03:58;201.43;;;136.70;;
49710;SDS011;35602;44.534;18.696;2022-11-14T20:09:04;193.68;;;136.48;;
49710;SDS011;35602;44.534;18.696;2022-11-14T20:14:09;187.40;;;132.45;;
49710;SDS011;35602;44.534;18.696;2022-11-14T20:19:11;186.15;;;130.80;;
49710;SDS011;35602;44.534;18.696;2022-11-14T20:24:13;186.25;;;132.23;;
49710;SDS011;35602;44.534;18.696;2022-11-14T20:29:20;189.07;;;132.98;;
49710;SDS011;35602;44.534;18.696;2022-11-14T20:34:21;190.27;;;130.30;;
49710;SDS011;35602;44.534;18.696;2022-11-14T20:39:22;178.90;;;128.45;;
49710;SDS011;35602;44.534;18.696;2022-11-14T20:44:23;179.48;;;128.35;;
49710;SDS011;35602;44.534;18.696;2022-11-14T20:49:23;175.77;;;126.00;;
49710;SDS011;35602;44.534;18.696;2022-11-14T20:54:24;180.35;;;126.97;;
49710;SDS011;35602;44.534;18.696;2022-11-14T20:59:26;180.50;;;128.23;;
49710;SDS011;35602;44.534;18.696;2022-11-14T21:04:26;180.10;;;128.18;;
49710;SDS011;35602;44.534;18.696;2022-11-14T21:09:27;171.93;;;124.00;;
49710;SDS011;35602;44.534;18.696;2022-11-14T21:14:28;177.18;;;125.28;;
49710;SDS011;35602;44.534;18.696;2022-11-14T21:19:29;177.10;;;124.85;;
49710;SDS011;35602;44.534;18.696;2022-11-14T21:24:30;172.30;;;122.85;;
49710;SDS011;35602;44.534;18.696;2022-11-14T21:29:31;166.80;;;120.30;;
49710;SDS011;35602;44.534;18.696;2022-11-14T21:34:31;164.13;;;116.95;;
49710;SDS011;35602;44.534;18.696;2022-11-14T21:39:33;160.50;;;117.18;;
49710;SDS011;35602;44.534;18.696;2022-11-14T21:44:34;158.52;;;117.47;;
49710;SDS011;35602;44.534;18.696;2022-11-14T21:49:34;167.90;;;117.80;;
49710;SDS011;35602;44.534;18.696;2022-11-14T21:54:35;164.25;;;117.53;;
49710;SDS011;35602;44.534;18.696;2022-11-14T21:59:36;156.85;;;114.22;;
49710;SDS011;35602;44.534;18.696;2022-11-14T22:04:37;156.95;;;114.30;;
49710;SDS011;35602;44.534;18.696;2022-11-14T22:09:39;152.77;;;111.45;;
49710;SDS011;35602;44.534;18.696;2022-11-14T22:14:40;151.32;;;111.30;;
49710;SDS011;35602;44.534;18.696;2022-11-14T22:19:41;153.18;;;113.53;;
49710;SDS011;35602;44.534;18.696;2022-11-14T22:24:42;152.35;;;110.35;;
49710;SDS011;35602;44.534;18.696;2022-11-14T22:29:42;151.23;;;109.07;;
49710;SDS011;35602;44.534;18.696;2022-11-14T22:34:43;144.25;;;106.03;;
49710;SDS011;35602;44.534;18.696;2022-11-14T22:39:44;144.30;;;106.32;;
49710;SDS011;35602;44.534;18.696;2022-11-14T22:44:45;139.52;;;104.10;;
49710;SDS011;35602;44.534;18.696;2022-11-14T22:49:46;143.02;;;106.80;;
49710;SDS011;35602;44.534;18.696;2022-11-14T22:54:46;142.37;;;105.60;;
49710;SDS011;35602;44.534;18.696;2022-11-14T22:59:47;134.18;;;101.55;;
49710;SDS011;35602;44.534;18.696;2022-11-14T23:04:48;136.12;;;101.80;;
49710;SDS011;35602;44.534;18.696;2022-11-14T23:09:49;139.77;;;103.07;;
49710;SDS011;35602;44.534;18.696;2022-11-14T23:14:50;134.85;;;100.30;;
49710;SDS011;35602;44.534;18.696;2022-11-14T23:19:50;136.85;;;98.82;;
49710;SDS011;35602;44.534;18.696;2022-11-14T23:24:51;135.25;;;97.90;;
49710;SDS011;35602;44.534;18.696;2022-11-14T23:29:52;134.93;;;99.20;;
49710;SDS011;35602;44.534;18.696;2022-11-14T23:34:53;136.40;;;100.28;;
49710;SDS011;35602;44.534;18.696;2022-11-14T23:39:53;128.70;;;97.88;;
49710;SDS011;35602;44.534;18.696;2022-11-14T23:44:54;131.70;;;97.80;;
49710;SDS011;35602;44.534;18.696;2022-11-14T23:49:55;125.15;;;95.87;;
49710;SDS011;35602;44.534;18.696;2022-11-14T23:54:56;130.57;;;95.22;;
49710;SDS011;35602;44.534;18.696;2022-11-14T23:59:57;126.55;;;94.60;;
